createdAt,value
2018-01-16T00:01:56.177Z,45.72
2018-01-16T00:04:24.983Z,45.17
2018-01-16T00:06:53.047Z,44.38
2018-01-16T00:09:21.085Z,41.20
2018-01-16T00:11:49.163Z,47.55
2018-01-16T00:14:17.150Z,43.72
2018-01-16T00:16:45.955Z,42.75
2018-01-16T00:19:14.087Z,43.55
2018-01-16T00:21:42.123Z,43.55
2018-01-16T00:24:10.161Z,44.50
2018-01-16T00:26:38.201Z,43.15
2018-01-16T00:29:06.308Z,41.50
2018-01-16T00:31:34.363Z,43.42
2018-01-16T00:34:03.191Z,41.22
2018-01-16T00:36:31.225Z,45.00
2018-01-16T00:39:00.026Z,41.50
2018-01-16T00:41:28.074Z,44.58
2018-01-16T00:43:56.853Z,43.87
2018-01-16T00:46:24.915Z,43.45
2018-01-16T00:48:52.953Z,44.90
2018-01-16T00:51:21.000Z,41.47
2018-01-16T00:53:49.077Z,43.42
2018-01-16T00:56:17.143Z,41.75
2018-01-16T00:58:45.187Z,42.15
2018-01-16T01:01:14.023Z,44.10
2018-01-16T01:03:42.075Z,43.47
2018-01-16T01:06:10.093Z,41.40
2018-01-16T01:08:38.135Z,42.40
2018-01-16T01:11:06.271Z,43.15
2018-01-16T01:13:35.057Z,42.57
2018-01-16T01:16:03.893Z,42.90
2018-01-16T01:18:31.967Z,39.03
2018-01-16T01:20:59.997Z,41.92
2018-01-16T01:23:28.065Z,38.37
2018-01-16T01:25:56.888Z,43.57
2018-01-16T01:28:24.930Z,41.20
2018-01-16T01:30:52.978Z,39.43
2018-01-16T01:33:21.788Z,42.40
2018-01-16T01:35:49.817Z,42.37
2018-01-16T01:38:17.849Z,40.70
2018-01-16T01:40:45.915Z,40.87
2018-01-16T01:43:13.999Z,39.53
2018-01-16T01:45:42.068Z,39.33
2018-01-16T01:48:10.099Z,41.23
2018-01-16T01:50:38.911Z,38.97
2018-01-16T01:53:06.970Z,42.13
2018-01-16T01:55:35.021Z,42.78
2018-01-16T01:58:03.855Z,42.78
2018-01-16T02:00:31.887Z,43.87
2018-01-16T02:03:00.723Z,41.88
2018-01-16T02:05:28.768Z,41.15
2018-01-16T02:07:56.831Z,40.10
2018-01-16T02:10:24.868Z,42.75
2018-01-16T02:12:52.940Z,43.63
2018-01-16T02:15:20.960Z,41.60
2018-01-16T02:17:49.184Z,42.45
2018-01-16T02:20:17.224Z,40.35
2018-01-16T02:22:45.247Z,43.47
2018-01-16T02:25:14.088Z,43.28
2018-01-16T02:27:42.127Z,40.47
2018-01-16T02:30:10.193Z,42.45
2018-01-16T02:32:38.280Z,41.92
2018-01-16T02:35:06.309Z,40.78
2018-01-16T02:37:34.354Z,40.77
2018-01-16T02:40:02.388Z,41.20
2018-01-16T02:42:30.451Z,46.53
2018-01-16T02:44:58.539Z,41.63
2018-01-16T02:47:26.660Z,41.83
2018-01-16T02:49:54.757Z,39.75
2018-01-16T02:52:22.850Z,42.78
2018-01-16T02:54:50.975Z,40.73
2018-01-16T02:57:19.030Z,41.80
2018-01-16T02:59:47.056Z,40.70
2018-01-16T03:02:15.115Z,42.33
2018-01-16T03:04:43.168Z,42.75
2018-01-16T03:07:11.981Z,41.85
2018-01-16T03:09:40.028Z,43.08
2018-01-16T03:12:08.818Z,41.42
2018-01-16T03:14:36.899Z,44.92
2018-01-16T03:17:04.968Z,42.05
2018-01-16T03:19:33.782Z,43.15
2018-01-16T03:22:01.839Z,42.78
2018-01-16T03:24:29.908Z,43.28
2018-01-16T03:26:57.952Z,44.75
2018-01-16T03:29:26.760Z,42.78
2018-01-16T03:31:55.581Z,41.20
2018-01-16T03:34:23.617Z,43.05
2018-01-16T03:36:51.644Z,42.85
2018-01-16T03:39:19.688Z,42.85
2018-01-16T03:41:47.693Z,40.80
2018-01-16T03:44:15.768Z,42.90
2018-01-16T03:46:43.825Z,42.77
2018-01-16T03:49:11.876Z,43.35
2018-01-16T03:51:39.905Z,44.90
2018-01-16T03:54:08.708Z,46.17
2018-01-16T03:56:36.728Z,44.80
2018-01-16T03:59:04.745Z,44.57
2018-01-16T04:01:32.787Z,44.03
2018-01-16T04:04:00.844Z,42.88
2018-01-16T04:06:28.891Z,44.60
2018-01-16T04:08:56.927Z,45.28
2018-01-16T04:11:24.956Z,48.00
2018-01-16T04:13:53.032Z,46.47
2018-01-16T04:16:21.060Z,42.10
2018-01-16T04:18:49.116Z,43.47
2018-01-16T04:21:17.162Z,45.10
2018-01-16T04:23:45.965Z,41.37
2018-01-16T04:26:14.063Z,43.60
2018-01-16T04:28:42.091Z,41.37
2018-01-16T04:31:10.945Z,44.15
2018-01-16T04:33:39.020Z,40.92
2018-01-16T04:36:07.257Z,42.60
2018-01-16T04:38:35.268Z,42.15
2018-01-16T04:41:03.352Z,45.05
2018-01-16T04:43:31.414Z,44.17
2018-01-16T04:45:59.471Z,43.70
2018-01-16T04:48:27.522Z,42.38
2018-01-16T04:50:55.546Z,44.10
2018-01-16T04:53:24.345Z,42.45
2018-01-16T04:55:53.160Z,42.05
2018-01-16T04:58:21.185Z,41.65
2018-01-16T05:00:49.228Z,39.90
2018-01-16T05:03:17.304Z,43.87
2018-01-16T05:05:45.360Z,42.30
2018-01-16T05:08:13.356Z,42.25
2018-01-16T05:10:41.408Z,43.22
2018-01-16T05:13:10.296Z,44.90
2018-01-16T05:15:38.336Z,42.17
2018-01-16T05:18:06.424Z,43.70
2018-01-16T05:20:34.447Z,40.72
2018-01-16T05:23:03.279Z,43.75
2018-01-16T05:25:31.312Z,46.37
2018-01-16T05:28:00.175Z,44.65
2018-01-16T05:30:28.204Z,45.12
2018-01-16T05:32:56.237Z,46.37
2018-01-16T05:35:25.043Z,43.28
2018-01-16T05:37:53.110Z,46.20
2018-01-16T05:40:21.926Z,50.17
2018-01-16T05:42:49.991Z,47.92
2018-01-16T05:45:17.993Z,53.43
2018-01-16T05:47:46.044Z,52.33
2018-01-16T05:50:14.132Z,59.67
2018-01-16T05:52:42.221Z,56.40
2018-01-16T05:55:10.283Z,58.72
2018-01-16T05:57:39.113Z,55.97
2018-01-16T06:00:07.930Z,54.80
2018-01-16T06:02:35.944Z,55.90
2018-01-16T06:05:04.024Z,52.00
2018-01-16T06:07:32.863Z,58.15
2018-01-16T06:10:01.227Z,58.65
2018-01-16T06:12:29.618Z,58.20
2018-01-16T06:14:57.648Z,78.47
2018-01-16T06:17:26.457Z,81.85
2018-01-16T06:19:54.521Z,79.77
2018-01-16T06:22:23.321Z,72.57
2018-01-16T06:24:51.339Z,65.40
2018-01-16T06:27:19.400Z,61.90
2018-01-16T06:29:47.440Z,59.13
2018-01-16T06:32:15.480Z,55.00
2018-01-16T06:34:44.278Z,50.70
2018-01-16T06:37:12.348Z,59.47
2018-01-16T06:39:41.128Z,48.55
2018-01-16T06:42:09.927Z,50.33
2018-01-16T06:44:38.040Z,48.72
2018-01-16T06:47:06.083Z,44.23
2018-01-16T06:49:34.114Z,44.10
2018-01-16T06:52:02.152Z,43.80
2018-01-16T06:54:30.189Z,43.60
2018-01-16T06:56:58.225Z,42.45
2018-01-16T06:59:26.275Z,42.62
2018-01-16T07:01:54.314Z,41.20
2018-01-16T07:04:22.383Z,45.97
2018-01-16T07:06:50.427Z,46.42
2018-01-16T07:09:19.231Z,41.07
2018-01-16T07:11:47.253Z,42.90
2018-01-16T07:14:15.293Z,41.73
2018-01-16T07:16:43.354Z,52.55
2018-01-16T07:19:11.479Z,50.27
2018-01-16T07:21:39.603Z,46.97
2018-01-16T07:24:07.729Z,43.95
2018-01-16T07:26:35.788Z,47.90
2018-01-16T07:29:03.832Z,41.10
2018-01-16T07:31:31.859Z,42.63
2018-01-16T07:34:00.672Z,44.60
2018-01-16T07:36:28.701Z,42.10
2018-01-16T07:38:57.508Z,42.83
2018-01-16T07:41:26.355Z,44.30
2018-01-16T07:43:54.380Z,40.50
2018-01-16T07:46:22.439Z,40.17
2018-01-16T07:48:51.232Z,39.70
2018-01-16T07:51:20.020Z,42.07
2018-01-16T07:53:48.023Z,36.53
2018-01-16T07:56:16.078Z,36.17
2018-01-16T07:58:44.100Z,49.37
2018-01-16T08:01:12.155Z,41.90
2018-01-16T08:03:40.231Z,40.10
2018-01-16T08:06:08.284Z,38.97
2018-01-16T08:08:36.343Z,43.25
2018-01-16T08:11:04.381Z,39.67
2018-01-16T08:13:33.169Z,40.00
2018-01-16T08:16:01.197Z,38.55
2018-01-16T08:18:29.207Z,40.00
2018-01-16T08:20:57.268Z,38.00
2018-01-16T08:23:26.111Z,36.45
2018-01-16T08:25:54.155Z,36.67
2018-01-16T08:28:22.206Z,37.05
2018-01-16T08:30:50.312Z,35.97
2018-01-16T08:33:18.337Z,43.28
2018-01-16T08:35:47.156Z,69.97
2018-01-16T08:38:15.216Z,54.10
2018-01-16T08:40:43.235Z,48.75
2018-01-16T08:43:11.307Z,42.70
2018-01-16T08:45:39.333Z,42.90
2018-01-16T08:48:07.389Z,40.50
2018-01-16T08:50:35.491Z,36.28
2018-01-16T08:53:03.522Z,40.30
2018-01-16T08:55:32.345Z,38.50
2018-01-16T08:58:00.396Z,36.22
2018-01-16T09:00:28.432Z,36.80
2018-01-16T09:02:56.512Z,34.45
2018-01-16T09:05:25.313Z,37.60
2018-01-16T09:07:54.152Z,37.60
2018-01-16T09:10:22.977Z,36.20
2018-01-16T09:12:51.020Z,37.45
2018-01-16T09:15:19.820Z,40.00
2018-01-16T09:17:47.845Z,35.65
2018-01-16T09:20:15.884Z,40.78
2018-01-16T09:22:44.687Z,41.85
2018-01-16T09:25:12.700Z,43.22
2018-01-16T09:27:40.743Z,42.62
2018-01-16T09:30:08.811Z,41.50
2018-01-16T09:32:36.875Z,38.88
2018-01-16T09:35:04.896Z,44.20
2018-01-16T09:37:32.968Z,47.88
2018-01-16T09:40:00.979Z,47.78
2018-01-16T09:42:29.020Z,50.17
2018-01-16T09:44:57.041Z,48.83
2018-01-16T09:47:25.088Z,51.80
2018-01-16T09:49:53.148Z,79.22
2018-01-16T09:52:21.930Z,70.05
2018-01-16T09:54:50.728Z,65.25
2018-01-16T09:57:19.525Z,60.17
2018-01-16T09:59:47.648Z,62.85
2018-01-16T10:02:15.704Z,58.72
2018-01-16T10:04:43.738Z,55.20
2018-01-16T10:07:12.559Z,49.92
2018-01-16T10:09:40.622Z,52.47
2018-01-16T10:12:09.155Z,49.13
2018-01-16T10:14:37.221Z,49.22
2018-01-16T10:17:05.264Z,49.45
2018-01-16T10:19:33.322Z,48.60
2018-01-16T10:22:01.320Z,45.22
2018-01-16T10:24:29.575Z,47.05
2018-01-16T10:26:57.648Z,49.95
2018-01-16T10:29:25.733Z,49.35
2018-01-16T10:31:53.741Z,47.47
2018-01-16T10:34:22.537Z,44.50
2018-01-16T10:36:50.570Z,47.45
2018-01-16T10:39:18.623Z,49.15
2018-01-16T10:41:46.733Z,47.72
2018-01-16T10:44:15.508Z,45.60
2018-01-16T10:46:43.567Z,51.60
2018-01-16T10:49:11.627Z,51.40
2018-01-16T10:51:39.671Z,48.78
2018-01-16T10:54:07.760Z,49.17
2018-01-16T10:56:35.916Z,50.05
2018-01-16T10:59:03.959Z,45.78
2018-01-16T11:01:32.754Z,46.10
2018-01-16T11:04:00.796Z,46.28
2018-01-16T11:06:28.836Z,43.65
2018-01-16T11:08:56.892Z,47.75
2018-01-16T11:11:24.935Z,44.13
2018-01-16T11:13:53.716Z,44.53
2018-01-16T11:16:22.547Z,48.13
2018-01-16T11:18:50.595Z,43.95
2018-01-16T11:21:18.650Z,45.03
2018-01-16T11:23:47.448Z,44.25
2018-01-16T11:26:15.546Z,42.33
2018-01-16T11:28:43.619Z,40.12
2018-01-16T11:31:11.661Z,44.53
2018-01-16T11:33:39.699Z,39.28
2018-01-16T11:36:07.752Z,42.85
2018-01-16T11:38:35.815Z,40.90
2018-01-16T11:41:03.838Z,43.42
2018-01-16T11:43:31.888Z,40.22
2018-01-16T11:46:00.689Z,42.15
2018-01-16T11:48:29.564Z,40.92
2018-01-16T11:50:58.388Z,41.17
2018-01-16T11:53:26.504Z,44.15
2018-01-16T11:55:54.538Z,43.38
2018-01-16T11:58:22.602Z,41.65
2018-01-16T12:00:50.654Z,42.15
2018-01-16T12:03:19.465Z,45.20
2018-01-16T12:05:47.582Z,48.13
2018-01-16T12:08:15.671Z,49.72
2018-01-16T12:10:45.301Z,46.17
2018-01-16T12:13:14.201Z,46.67
2018-01-16T12:15:43.595Z,51.13
2018-01-16T12:18:11.715Z,50.10
2018-01-16T12:20:39.760Z,45.97
2018-01-16T12:23:07.809Z,49.90
2018-01-16T12:25:35.835Z,46.92
2018-01-16T12:28:03.868Z,44.90
2018-01-16T12:30:31.935Z,46.10
2018-01-16T12:32:59.971Z,44.17
2018-01-16T12:35:28.848Z,44.97
2018-01-16T12:37:56.919Z,51.30
2018-01-16T12:40:24.958Z,53.05
2018-01-16T12:42:53.208Z,51.20
2018-01-16T12:45:21.221Z,50.88
2018-01-16T12:47:49.261Z,48.20
2018-01-16T12:50:17.283Z,47.60
2018-01-16T12:52:46.122Z,45.55
2018-01-16T12:55:14.142Z,44.42
2018-01-16T12:57:42.176Z,42.15
2018-01-16T13:00:10.251Z,42.95
2018-01-16T13:02:38.323Z,45.20
2018-01-16T13:05:06.372Z,41.35
2018-01-16T13:07:34.451Z,41.17
2018-01-16T13:10:02.510Z,42.88
2018-01-16T13:12:30.576Z,39.75
2018-01-16T13:14:58.647Z,44.75
2018-01-16T13:17:26.688Z,46.53
2018-01-16T13:19:55.482Z,47.15
2018-01-16T13:22:24.297Z,46.40
2018-01-16T13:24:52.378Z,46.28
2018-01-16T13:27:20.439Z,43.63
2018-01-16T13:29:48.575Z,49.08
2018-01-16T13:32:17.400Z,45.05
2018-01-16T13:34:45.457Z,39.40
2018-01-16T13:37:13.505Z,45.10
2018-01-16T13:39:42.335Z,41.33
2018-01-16T13:42:10.412Z,42.60
2018-01-16T13:44:38.458Z,41.13
2018-01-16T13:47:06.504Z,42.47
2018-01-16T13:49:34.525Z,39.00
2018-01-16T13:52:02.591Z,42.42
2018-01-16T13:54:30.640Z,42.17
2018-01-16T13:56:58.640Z,41.87
2018-01-16T13:59:26.735Z,44.38
2018-01-16T14:01:54.795Z,42.13
2018-01-16T14:04:23.585Z,42.80
2018-01-16T14:06:51.689Z,40.12
2018-01-16T14:09:19.708Z,45.37
2018-01-16T14:11:47.745Z,40.00
2018-01-16T14:14:15.823Z,42.58
2018-01-16T14:16:43.871Z,40.67
2018-01-16T14:19:12.740Z,42.33
2018-01-16T14:21:40.783Z,40.65
2018-01-16T14:24:08.885Z,45.97
2018-01-16T14:26:36.917Z,49.30
2018-01-16T14:29:04.940Z,43.47
2018-01-16T14:31:33.012Z,44.63
2018-01-16T14:34:01.043Z,45.40
2018-01-16T14:36:29.064Z,40.63
2018-01-16T14:38:57.864Z,38.73
2018-01-16T14:41:25.904Z,40.45
2018-01-16T14:43:53.933Z,39.40
2018-01-16T14:46:21.990Z,39.20
2018-01-16T14:48:50.033Z,40.23
2018-01-16T14:51:18.875Z,38.88
2018-01-16T14:53:46.917Z,42.80
2018-01-16T14:56:14.992Z,72.97
2018-01-16T14:58:43.044Z,88.20
2018-01-16T15:01:12.018Z,85.80
2018-01-16T15:03:40.059Z,86.00
2018-01-16T15:06:08.125Z,84.07
2018-01-16T15:08:36.245Z,66.87
2018-01-16T15:11:04.381Z,57.85
2018-01-16T15:13:32.438Z,58.83
2018-01-16T15:16:01.423Z,58.35
2018-01-16T15:18:30.280Z,51.50
2018-01-16T15:20:58.330Z,50.30
2018-01-16T15:23:27.141Z,45.40
2018-01-16T15:25:55.200Z,47.20
2018-01-16T15:28:24.016Z,47.20
2018-01-16T15:30:52.046Z,44.83
2018-01-16T15:33:20.077Z,45.10
2018-01-16T15:35:48.124Z,41.40
2018-01-16T15:38:16.185Z,40.57
2018-01-16T15:40:44.223Z,43.17
2018-01-16T15:43:12.245Z,40.57
2018-01-16T15:45:40.328Z,43.20
2018-01-16T15:48:08.342Z,40.67
2018-01-16T15:50:36.389Z,41.17
2018-01-16T15:53:04.432Z,41.67
2018-01-16T15:55:32.447Z,40.10
2018-01-16T15:58:01.264Z,39.95
2018-01-16T16:00:29.319Z,40.70
2018-01-16T16:02:58.132Z,39.23
2018-01-16T16:05:26.202Z,38.33
2018-01-16T16:07:54.283Z,38.50
2018-01-16T16:10:22.391Z,38.73
2018-01-16T16:12:50.492Z,37.42
2018-01-16T16:15:19.320Z,36.57
2018-01-16T16:17:47.419Z,38.60
2018-01-16T16:20:15.512Z,40.60
2018-01-16T16:22:43.553Z,39.83
2018-01-16T16:25:11.608Z,41.10
2018-01-16T16:27:39.696Z,41.57
2018-01-16T16:30:07.761Z,45.47
2018-01-16T16:32:35.821Z,43.20
2018-01-16T16:35:03.880Z,51.08
2018-01-16T16:37:32.555Z,52.78
2018-01-16T16:40:00.613Z,52.62
2018-01-16T16:42:29.409Z,53.05
2018-01-16T16:44:57.447Z,53.90
2018-01-16T16:47:25.485Z,54.95
2018-01-16T16:49:53.562Z,56.42
2018-01-16T16:52:21.580Z,53.87
2018-01-16T16:54:50.403Z,49.90
2018-01-16T16:57:18.492Z,57.50
2018-01-16T16:59:46.547Z,52.62
2018-01-16T17:02:14.636Z,54.20
2018-01-16T17:04:42.704Z,54.30
2018-01-16T17:07:10.782Z,49.50
2018-01-16T17:09:38.833Z,44.77
2018-01-16T17:12:06.941Z,48.70
2018-01-16T17:14:34.991Z,47.72
2018-01-16T17:17:03.099Z,48.53
2018-01-16T17:19:31.854Z,46.35
2018-01-16T17:21:59.921Z,46.40
2018-01-16T17:24:27.979Z,51.90
2018-01-16T17:26:56.029Z,49.43
2018-01-16T17:29:24.145Z,45.92
2018-01-16T17:31:52.232Z,48.20
2018-01-16T17:34:20.257Z,45.17
2018-01-16T17:36:48.288Z,47.17
2018-01-16T17:39:17.077Z,47.92
2018-01-16T17:41:45.860Z,43.73
2018-01-16T17:44:14.683Z,45.25
2018-01-16T17:46:42.740Z,46.67
2018-01-16T17:49:10.792Z,46.63
2018-01-16T17:51:39.629Z,46.72
2018-01-16T17:54:07.676Z,45.97
2018-01-16T17:56:35.704Z,46.70
2018-01-16T17:59:03.750Z,45.30
2018-01-16T18:01:31.801Z,45.25
2018-01-16T18:03:59.888Z,44.85
2018-01-16T18:06:27.959Z,50.15
2018-01-16T18:08:55.997Z,48.03
2018-01-16T18:11:24.034Z,42.72
2018-01-16T18:13:52.094Z,48.17
2018-01-16T18:16:20.133Z,46.67
2018-01-16T18:18:48.264Z,46.13
2018-01-16T18:21:17.095Z,46.05
2018-01-16T18:23:45.145Z,44.33
2018-01-16T18:26:13.301Z,45.72
2018-01-16T18:28:42.122Z,47.62
2018-01-16T18:31:10.175Z,45.08
2018-01-16T18:33:38.197Z,50.15
2018-01-16T18:36:06.236Z,42.47
2018-01-16T18:38:34.269Z,43.85
2018-01-16T18:41:02.314Z,46.13
2018-01-16T18:43:30.363Z,46.70
2018-01-16T18:45:58.430Z,44.13
2018-01-16T18:48:26.485Z,42.95
2018-01-16T18:50:54.509Z,46.03
2018-01-16T18:53:22.581Z,48.58
2018-01-16T18:55:51.380Z,43.05
2018-01-16T18:58:20.216Z,45.88
2018-01-16T19:00:48.267Z,44.25
2018-01-16T19:03:16.344Z,44.45
2018-01-16T19:05:44.396Z,43.40
2018-01-16T19:08:12.442Z,45.05
2018-01-16T19:10:40.568Z,43.97
2018-01-16T19:13:08.593Z,42.13
2018-01-16T19:15:37.400Z,41.53
2018-01-16T19:18:05.441Z,40.22
2018-01-16T19:20:34.264Z,40.83
2018-01-16T19:23:02.310Z,39.42
2018-01-16T19:25:31.128Z,40.08
2018-01-16T19:27:59.180Z,41.47
2018-01-16T19:30:27.996Z,41.03
2018-01-16T19:32:56.045Z,41.80
2018-01-16T19:35:24.091Z,42.05
2018-01-16T19:37:52.869Z,40.78
2018-01-16T19:40:22.656Z,38.65
2018-01-16T19:42:50.748Z,40.20
2018-01-16T19:45:18.778Z,39.28
2018-01-16T19:47:46.882Z,38.88
2018-01-16T19:50:14.928Z,37.85
2018-01-16T19:52:42.996Z,38.67
2018-01-16T19:55:11.056Z,40.45
2018-01-16T19:57:39.135Z,38.00
2018-01-16T20:00:07.287Z,37.35
2018-01-16T20:02:35.354Z,37.75
2018-01-16T20:05:03.429Z,40.30
2018-01-16T20:07:31.441Z,37.63
2018-01-16T20:09:59.526Z,38.20
2018-01-16T20:12:27.564Z,39.67
2018-01-16T20:14:55.614Z,36.85
2018-01-16T20:17:23.721Z,38.90
2018-01-16T20:19:51.737Z,39.00
2018-01-16T20:22:20.526Z,40.67
2018-01-16T20:24:49.294Z,35.17
2018-01-16T20:27:17.332Z,37.65
2018-01-16T20:29:45.373Z,42.00
2018-01-16T20:32:13.411Z,39.33
2018-01-16T20:34:41.418Z,41.72
2018-01-16T20:37:09.488Z,38.35
2018-01-16T20:39:37.551Z,38.90
2018-01-16T20:42:05.655Z,38.15
2018-01-16T20:44:33.684Z,41.00
2018-01-16T20:47:02.499Z,40.42
2018-01-16T20:49:30.518Z,39.20
2018-01-16T20:51:58.580Z,41.83
2018-01-16T20:54:26.637Z,39.67
2018-01-16T20:56:54.700Z,38.03
2018-01-16T20:59:22.760Z,39.90
2018-01-16T21:01:50.888Z,40.80
2018-01-16T21:04:18.941Z,39.13
2018-01-16T21:06:47.030Z,40.90
2018-01-16T21:09:15.948Z,40.42
2018-01-16T21:11:43.972Z,40.97
2018-01-16T21:14:12.055Z,37.92
2018-01-16T21:16:40.101Z,38.22
2018-01-16T21:19:08.200Z,37.17
2018-01-16T21:21:36.253Z,39.03
2018-01-16T21:24:04.301Z,36.97
2018-01-16T21:26:32.371Z,36.50
2018-01-16T21:29:00.413Z,37.33
2018-01-16T21:31:28.497Z,34.72
2018-01-16T21:33:56.574Z,34.92
2018-01-16T21:36:24.652Z,37.08
2018-01-16T21:38:52.753Z,37.25
2018-01-16T21:41:20.779Z,41.67
2018-01-16T21:43:48.800Z,36.58
2018-01-16T21:46:16.816Z,35.60
2018-01-16T21:48:44.925Z,37.63
2018-01-16T21:51:13.064Z,37.10
2018-01-16T21:53:41.277Z,36.63
2018-01-16T21:56:12.004Z,35.22
2018-01-16T21:58:41.121Z,39.53
2018-01-16T22:01:10.712Z,36.92
2018-01-16T22:03:40.158Z,38.33
2018-01-16T22:06:10.390Z,37.90
2018-01-16T22:08:40.004Z,40.60
2018-01-16T22:11:09.901Z,34.50
2018-01-16T22:13:39.342Z,38.63
2018-01-16T22:16:09.128Z,41.42
2018-01-16T22:18:38.203Z,39.08
2018-01-16T22:21:09.058Z,41.40
2018-01-16T22:23:40.023Z,38.50
2018-01-16T22:26:12.903Z,37.88
2018-01-16T22:28:42.098Z,39.90
2018-01-16T22:31:12.536Z,40.40
2018-01-16T22:33:43.088Z,39.40
2018-01-16T22:36:13.505Z,41.35
2018-01-16T22:38:43.714Z,38.28
2018-01-16T22:41:12.949Z,38.42
2018-01-16T22:43:42.143Z,35.97
2018-01-16T22:46:11.083Z,37.38
2018-01-16T22:48:41.313Z,38.30
2018-01-16T22:51:11.479Z,39.22
2018-01-16T22:53:43.650Z,38.80
2018-01-16T22:56:13.466Z,38.92
2018-01-16T22:58:44.519Z,38.03
2018-01-16T23:01:15.101Z,38.38
2018-01-16T23:03:45.043Z,39.60
2018-01-16T23:06:14.793Z,37.55
2018-01-16T23:08:44.369Z,41.30
2018-01-16T23:11:14.402Z,40.22
2018-01-16T23:13:44.637Z,36.17
2018-01-16T23:16:14.218Z,38.60
2018-01-16T23:18:44.426Z,40.65
2018-01-16T23:21:16.272Z,40.05
2018-01-16T23:23:46.069Z,40.95
2018-01-16T23:26:18.230Z,36.03
2018-01-16T23:28:47.830Z,40.28
2018-01-16T23:31:17.860Z,38.40
2018-01-16T23:33:48.078Z,38.58
2018-01-16T23:36:16.597Z,41.53
2018-01-16T23:38:48.373Z,38.20
2018-01-16T23:41:19.205Z,39.20
2018-01-16T23:43:48.977Z,40.30
2018-01-16T23:46:19.244Z,38.65
2018-01-16T23:48:49.643Z,36.97
2018-01-16T23:51:19.971Z,37.45
2018-01-16T23:53:50.483Z,40.72
2018-01-16T23:56:22.385Z,39.03
2018-01-16T23:58:53.732Z,39.50
